Time;durP1;ratioP1;P1;durP2;ratioP2;P2;SDS_P1;SDS_P2;PMS_P1;PMS_P2;Temp;Humidity;BMP_temperature;BMP_pressure;BME280_temperature;BME280_humidity;BME280_pressure;Samples;Min_cycle;Max_cycle;Signal;HPM_P1;HPM_P2
2023/12/10 00:00:08;;;;;;;40.73;10.60;;;7.60;82.00;;;;;;5046621;28;20395;-74
2023/12/10 00:02:33;;;;;;;45.10;11.40;;;7.60;81.90;;;;;;5045869;28;20460;-75
2023/12/10 00:04:59;;;;;;;39.53;10.60;;;7.60;81.80;;;;;;5045368;28;20056;-75
2023/12/10 00:07:25;;;;;;;41.40;8.80;;;7.60;81.00;;;;;;5046565;28;20119;-74
2023/12/10 00:09:51;;;;;;;45.07;9.13;;;7.60;81.10;;;;;;5049531;28;20057;-75
2023/12/10 00:12:16;;;;;;;38.20;8.70;;;7.60;81.10;;;;;;5040959;28;20072;-74
2023/12/10 00:14:42;;;;;;;39.47;9.60;;;7.60;81.10;;;;;;5018406;28;20127;-75
2023/12/10 00:17:08;;;;;;;45.60;9.23;;;7.60;80.70;;;;;;5029583;28;20051;-75
2023/12/10 00:19:34;;;;;;;46.73;9.40;;;7.70;80.70;;;;;;5033950;28;20057;-74
2023/12/10 00:21:59;;;;;;;33.97;8.60;;;7.80;80.50;;;;;;5032348;28;20048;-74
2023/12/10 00:24:25;;;;;;;35.23;9.20;;;7.80;80.60;;;;;;5036929;28;20051;-74
2023/12/10 00:26:51;;;;;;;45.27;10.73;;;7.80;79.90;;;;;;5025986;28;20544;-75
2023/12/10 00:29:17;;;;;;;39.43;8.47;;;7.80;79.90;;;;;;5030941;28;20056;-74
2023/12/10 00:31:44;;;;;;;38.07;9.20;;;7.80;79.60;;;;;;5038181;28;20045;-74
2023/12/10 00:34:10;;;;;;;38.33;9.10;;;7.80;79.80;;;;;;5045549;28;20053;-74
2023/12/10 00:36:36;;;;;;;44.33;10.07;;;7.80;79.90;;;;;;5037028;28;20053;-75
2023/12/10 00:39:05;;;;;;;36.67;13.50;;;7.80;79.70;;;;;;5038531;28;20488;-75
2023/12/10 00:41:31;;;;;;;42.00;18.07;;;7.80;79.40;;;;;;5021315;28;20470;-75
2023/12/10 00:43:56;;;;;;;40.27;10.40;;;7.80;79.20;;;;;;5036087;28;20132;-74
2023/12/10 00:46:22;;;;;;;43.60;11.33;;;7.80;78.80;;;;;;5016740;28;20216;-75
2023/12/10 00:48:48;;;;;;;43.50;10.23;;;7.80;79.00;;;;;;5030427;28;20056;-74
2023/12/10 00:51:21;;;;;;;37.03;9.30;;;7.80;79.00;;;;;;5026032;28;20050;-73
2023/12/10 00:53:47;;;;;;;35.23;8.50;;;7.80;78.90;;;;;;5033338;28;20069;-75
2023/12/10 00:56:13;;;;;;;35.20;10.57;;;7.80;78.90;;;;;;5024399;28;20049;-74
2023/12/10 00:58:38;;;;;;;30.30;10.60;;;7.80;79.00;;;;;;5033560;28;20053;-75
2023/12/10 01:01:04;;;;;;;37.17;10.53;;;7.80;78.90;;;;;;5016514;28;20382;-75
2023/12/10 01:03:30;;;;;;;43.53;23.20;;;7.80;79.20;;;;;;5040304;28;20072;-75
2023/12/10 01:05:56;;;;;;;31.67;10.03;;;7.80;79.30;;;;;;5045552;28;20057;-74
2023/12/10 01:08:22;;;;;;;35.40;9.60;;;7.80;79.90;;;;;;5044733;28;20419;-74
2023/12/10 01:10:48;;;;;;;35.37;6.47;;;7.60;80.40;;;;;;5045535;28;20053;-75
2023/12/10 01:13:14;;;;;;;32.23;8.93;;;7.60;80.70;;;;;;5043967;28;20049;-72
2023/12/10 01:15:40;;;;;;;34.40;7.33;;;7.60;81.10;;;;;;5045861;28;20049;-74
2023/12/10 01:18:06;;;;;;;29.93;6.50;;;7.50;81.40;;;;;;5038482;28;20104;-74
2023/12/10 01:20:33;;;;;;;40.00;7.20;;;7.50;81.60;;;;;;5040590;28;20487;-74
2023/12/10 01:22:59;;;;;;;31.17;6.47;;;7.40;81.80;;;;;;5046166;28;20057;-74
2023/12/10 01:25:25;;;;;;;40.47;7.83;;;7.40;82.10;;;;;;5045274;28;20052;-74
2023/12/10 01:27:52;;;;;;;30.83;7.53;;;7.30;82.30;;;;;;5026605;28;20045;-74
2023/12/10 01:30:24;;;;;;;36.67;8.37;;;7.30;82.80;;;;;;5038244;28;20064;-73
2023/12/10 01:32:59;;;;;;;36.57;8.20;;;7.20;83.00;;;;;;5046113;28;20540;-74
2023/12/10 01:35:26;;;;;;;45.00;8.23;;;7.20;83.40;;;;;;5027109;28;20037;-74
2023/12/10 01:37:52;;;;;;;50.40;8.53;;;7.10;83.70;;;;;;5030553;28;20041;-74
2023/12/10 01:40:19;;;;;;;40.67;7.90;;;7.00;83.80;;;;;;5028857;28;20044;-74
2023/12/10 01:42:45;;;;;;;52.60;10.83;;;7.00;84.20;;;;;;5029555;28;20140;-75
2023/12/10 01:45:11;;;;;;;52.33;10.37;;;7.00;84.30;;;;;;5027583;28;20489;-74
2023/12/10 01:47:44;;;;;;;40.90;8.80;;;7.00;84.50;;;;;;5029809;28;20045;-74
2023/12/10 01:50:13;;;;;;;43.27;8.90;;;7.00;84.70;;;;;;5029146;28;20050;-74
2023/12/10 01:52:47;;;;;;;36.77;8.10;;;7.00;84.70;;;;;;5037968;28;20125;-74
2023/12/10 01:55:13;;;;;;;49.23;9.47;;;7.00;84.80;;;;;;5016834;28;20397;-74
2023/12/10 01:57:39;;;;;;;52.40;13.20;;;7.00;85.10;;;;;;5027061;28;20404;-74
2023/12/10 02:00:06;;;;;;;47.53;10.13;;;7.00;85.20;;;;;;5027781;28;20120;-73
2023/12/10 02:02:33;;;;;;;51.07;10.40;;;7.00;85.10;;;;;;5008176;28;20124;-74
2023/12/10 02:05:07;;;;;;;43.13;8.87;;;7.00;85.20;;;;;;5033738;28;20107;-74
2023/12/10 02:07:33;;;;;;;43.60;9.23;;;7.00;85.20;;;;;;5028722;28;20046;-74
2023/12/10 02:09:59;;;;;;;40.47;9.83;;;6.90;85.40;;;;;;5029448;28;20489;-75
2023/12/10 02:12:27;;;;;;;57.33;18.43;;;6.90;85.50;;;;;;5038733;28;20083;-75
2023/12/10 02:14:53;;;;;;;41.13;8.67;;;6.90;85.50;;;;;;5037727;28;20112;-75
2023/12/10 02:17:19;;;;;;;50.43;9.83;;;6.90;85.50;;;;;;5036235;28;20056;-74
2023/12/10 02:19:45;;;;;;;39.57;8.03;;;6.90;85.60;;;;;;5047935;28;20045;-74
2023/12/10 02:22:14;;;;;;;41.40;9.57;;;6.90;85.70;;;;;;5044820;28;20041;-75
2023/12/10 02:24:58;;;;;;;43.90;10.37;;;6.90;85.80;;;;;;5040669;28;20049;-75
2023/12/10 02:27:25;;;;;;;48.50;8.87;;;6.90;85.90;;;;;;5038877;28;20045;-75
2023/12/10 02:29:52;;;;;;;43.50;10.00;;;6.90;86.00;;;;;;5041649;28;20405;-74
2023/12/10 02:32:17;;;;;;;36.93;7.60;;;6.90;86.00;;;;;;5049547;28;20044;-74
2023/12/10 02:34:43;;;;;;;41.43;8.97;;;6.90;86.00;;;;;;5057027;28;20117;-74
2023/12/10 02:37:09;;;;;;;38.90;8.13;;;6.90;86.00;;;;;;5056070;28;20331;-74
2023/12/10 02:39:34;;;;;;;37.10;7.93;;;6.90;86.00;;;;;;5049425;28;20049;-74
2023/12/10 02:42:00;;;;;;;35.17;7.37;;;6.90;86.00;;;;;;5046822;28;20175;-74
2023/12/10 02:44:26;;;;;;;42.60;14.67;;;6.90;86.00;;;;;;5047187;28;20052;-75
2023/12/10 02:46:52;;;;;;;43.43;8.33;;;6.90;86.00;;;;;;5052453;28;20040;-74
2023/12/10 02:49:17;;;;;;;43.60;8.40;;;6.90;86.20;;;;;;5050738;28;20395;-73
2023/12/10 02:51:43;;;;;;;43.47;8.47;;;6.90;86.30;;;;;;5052267;28;20040;-74
2023/12/10 02:54:09;;;;;;;37.93;7.97;;;6.90;86.30;;;;;;5051165;28;20170;-74
2023/12/10 02:56:34;;;;;;;39.07;8.20;;;6.90;86.30;;;;;;5040749;28;20053;-74
2023/12/10 02:59:00;;;;;;;44.77;8.10;;;6.90;86.40;;;;;;5048351;28;20076;-75
2023/12/10 03:01:27;;;;;;;46.97;10.37;;;6.80;86.50;;;;;;5046473;28;20153;-75
2023/12/10 03:03:52;;;;;;;42.27;7.13;;;6.80;86.60;;;;;;5035176;28;20177;-74
2023/12/10 03:06:18;;;;;;;39.23;8.83;;;6.80;86.70;;;;;;5047344;28;20051;-74
2023/12/10 03:08:44;;;;;;;42.83;9.30;;;6.80;86.80;;;;;;5046728;28;20078;-74
2023/12/10 03:11:10;;;;;;;41.37;8.07;;;6.80;86.90;;;;;;5047439;28;20381;-74
2023/12/10 03:13:35;;;;;;;40.53;8.30;;;6.80;87.00;;;;;;5048344;28;20111;-74
2023/12/10 03:16:01;;;;;;;33.97;7.10;;;6.70;87.10;;;;;;5047665;28;20044;-74
2023/12/10 03:18:27;;;;;;;44.00;8.13;;;6.70;87.20;;;;;;5047413;28;20048;-74
2023/12/10 03:20:53;;;;;;;40.50;10.87;;;6.70;87.40;;;;;;5047252;28;20045;-75
2023/12/10 03:23:19;;;;;;;36.80;6.47;;;6.70;87.40;;;;;;5048041;28;20052;-73
2023/12/10 03:25:45;;;;;;;30.63;8.13;;;6.70;87.50;;;;;;5047175;28;20053;-74
2023/12/10 03:28:11;;;;;;;27.40;6.67;;;6.70;87.50;;;;;;5047664;28;20055;-75
2023/12/10 03:30:36;;;;;;;36.70;6.57;;;6.70;87.60;;;;;;5046324;28;20080;-75
2023/12/10 03:33:02;;;;;;;33.67;7.20;;;6.70;87.70;;;;;;5041387;28;20067;-75
2023/12/10 03:35:28;;;;;;;30.97;6.93;;;6.70;87.70;;;;;;5034743;28;20119;-74
2023/12/10 03:37:53;;;;;;;36.20;5.93;;;6.70;87.90;;;;;;5036041;28;20103;-74
2023/12/10 03:40:19;;;;;;;24.97;6.13;;;6.70;87.90;;;;;;5035202;28;20053;-74
2023/12/10 03:42:45;;;;;;;28.10;5.90;;;6.70;87.90;;;;;;5045125;28;20045;-74
2023/12/10 03:45:11;;;;;;;30.00;6.17;;;6.70;88.00;;;;;;5046811;28;20083;-75
2023/12/10 03:47:37;;;;;;;25.43;5.33;;;6.60;88.00;;;;;;5054779;28;20060;-75
2023/12/10 03:50:04;;;;;;;25.07;6.00;;;6.70;88.20;;;;;;5047966;28;20045;-75
2023/12/10 03:52:29;;;;;;;25.77;7.20;;;6.70;88.20;;;;;;5066361;28;20402;-75
2023/12/10 03:54:55;;;;;;;19.40;4.87;;;6.70;88.30;;;;;;5049515;28;20045;-75
2023/12/10 03:57:21;;;;;;;18.27;5.03;;;6.70;88.50;;;;;;5043629;28;20053;-75
2023/12/10 03:59:47;;;;;;;17.10;4.10;;;6.70;88.50;;;;;;5047005;28;20045;-75
2023/12/10 04:02:13;;;;;;;28.60;7.33;;;6.80;88.50;;;;;;5039110;28;20046;-75
2023/12/10 04:04:39;;;;;;;20.80;4.57;;;6.80;88.50;;;;;;5040358;28;20134;-75
2023/12/10 04:07:04;;;;;;;16.57;4.40;;;6.80;88.60;;;;;;5046723;28;20045;-75
2023/12/10 04:09:30;;;;;;;38.67;14.23;;;6.80;88.70;;;;;;5046744;28;20061;-76
2023/12/10 04:11:56;;;;;;;25.20;7.40;;;6.80;88.70;;;;;;5045897;28;20133;-76
2023/12/10 04:14:23;;;;;;;20.30;4.47;;;6.90;88.70;;;;;;5045857;28;20041;-75
2023/12/10 04:16:48;;;;;;;19.33;7.30;;;6.90;89.00;;;;;;5046413;28;20563;-76
2023/12/10 04:19:14;;;;;;;21.57;5.97;;;7.00;89.00;;;;;;5047319;28;20132;-75
2023/12/10 04:21:40;;;;;;;25.67;5.03;;;7.00;88.90;;;;;;5046637;28;20069;-75
2023/12/10 04:24:06;;;;;;;23.83;4.57;;;7.00;89.00;;;;;;5046832;28;20372;-75
2023/12/10 04:26:32;;;;;;;29.63;8.07;;;7.00;88.90;;;;;;5045033;28;20057;-76
2023/12/10 04:28:57;;;;;;;20.87;5.63;;;7.10;89.00;;;;;;5049172;28;20052;-76
2023/12/10 04:31:23;;;;;;;27.03;5.60;;;7.20;89.00;;;;;;5055841;28;20045;-75
2023/12/10 04:33:49;;;;;;;26.07;6.53;;;7.20;89.00;;;;;;5031048;28;20099;-79
2023/12/10 04:36:14;;;;;;;38.03;14.23;;;7.20;89.00;;;;;;5036414;28;20055;-76
2023/12/10 04:38:40;;;;;;;29.60;10.03;;;7.20;89.00;;;;;;5046155;28;20456;-76
2023/12/10 04:41:06;;;;;;;28.80;6.13;;;7.20;88.90;;;;;;5045805;28;20064;-77
2023/12/10 04:43:32;;;;;;;45.27;18.53;;;7.30;89.00;;;;;;5050682;28;20099;-77
2023/12/10 04:45:58;;;;;;;27.73;6.43;;;7.30;88.90;;;;;;5045784;28;20110;-76
2023/12/10 04:48:24;;;;;;;25.30;7.37;;;7.40;88.90;;;;;;5045917;28;20488;-77
2023/12/10 04:50:50;;;;;;;46.33;8.87;;;7.30;88.90;;;;;;5052210;28;20088;-76
2023/12/10 04:53:16;;;;;;;30.53;5.93;;;7.40;89.00;;;;;;5045655;28;20068;-75
2023/12/10 04:55:42;;;;;;;27.07;7.17;;;7.40;89.00;;;;;;5045030;28;20532;-77
2023/12/10 04:58:08;;;;;;;20.67;8.17;;;7.40;89.00;;;;;;5041290;28;20076;-76
2023/12/10 05:00:34;;;;;;;34.17;10.07;;;7.40;89.00;;;;;;5045129;28;20057;-78
2023/12/10 05:03:00;;;;;;;30.87;6.57;;;7.40;89.00;;;;;;5045642;28;20045;-76
2023/12/10 05:05:25;;;;;;;30.23;8.33;;;7.40;89.00;;;;;;5045273;28;20049;-77
2023/12/10 05:07:51;;;;;;;38.70;13.87;;;7.40;88.90;;;;;;5046042;28;20053;-76
2023/12/10 05:10:17;;;;;;;23.53;7.93;;;7.40;88.80;;;;;;5043894;28;20041;-76
2023/12/10 05:12:42;;;;;;;23.23;6.10;;;7.40;88.70;;;;;;5045530;28;20041;-76
2023/12/10 05:15:09;;;;;;;15.93;5.03;;;7.40;88.70;;;;;;5045932;28;20167;-75
2023/12/10 05:17:34;;;;;;;21.83;5.43;;;7.40;88.70;;;;;;5044312;28;20550;-76
2023/12/10 05:20:00;;;;;;;18.23;3.67;;;7.40;88.60;;;;;;5046152;28;20475;-76
2023/12/10 05:22:26;;;;;;;28.10;6.57;;;7.40;88.50;;;;;;5044577;28;20060;-76
2023/12/10 05:24:51;;;;;;;18.80;4.90;;;7.40;88.40;;;;;;5045600;28;20445;-76
2023/12/10 05:27:17;;;;;;;18.87;3.40;;;7.40;88.30;;;;;;5044318;28;20520;-76
2023/12/10 05:29:43;;;;;;;15.70;3.70;;;7.40;87.80;;;;;;5044786;28;20052;-76
2023/12/10 05:32:08;;;;;;;14.67;5.13;;;7.40;87.70;;;;;;5044860;28;20106;-77
2023/12/10 05:34:34;;;;;;;17.00;3.53;;;7.40;87.40;;;;;;5034811;28;20128;-76
2023/12/10 05:37:00;;;;;;;12.63;2.80;;;7.50;87.10;;;;;;5025090;28;20510;-76
2023/12/10 05:39:26;;;;;;;12.13;3.83;;;7.50;87.00;;;;;;5020948;28;20046;-77
2023/12/10 05:41:51;;;;;;;17.17;5.73;;;7.50;86.90;;;;;;5011467;28;20053;-76
2023/12/10 05:44:17;;;;;;;14.73;3.10;;;7.40;86.80;;;;;;5015472;28;20084;-75
2023/12/10 05:46:43;;;;;;;12.93;4.40;;;7.50;86.60;;;;;;5012449;28;20052;-76
2023/12/10 05:49:09;;;;;;;15.23;3.77;;;7.50;86.40;;;;;;5005975;28;20045;-76
2023/12/10 05:51:34;;;;;;;12.43;3.43;;;7.50;86.40;;;;;;5006952;28;20046;-76
2023/12/10 05:54:00;;;;;;;15.30;4.47;;;7.50;86.10;;;;;;5021583;28;20542;-76
2023/12/10 05:56:26;;;;;;;16.00;6.97;;;7.50;85.90;;;;;;5042023;28;20049;-77
2023/12/10 05:58:51;;;;;;;16.77;2.60;;;7.50;85.90;;;;;;5029596;28;20672;-76
2023/12/10 06:01:17;;;;;;;18.53;6.30;;;7.50;85.90;;;;;;5044430;28;20071;-76
2023/12/10 06:03:43;;;;;;;14.07;3.43;;;7.50;86.00;;;;;;5044514;28;20047;-76
2023/12/10 06:06:08;;;;;;;15.87;3.77;;;7.50;85.90;;;;;;5044726;28;20080;-76
2023/12/10 06:08:34;;;;;;;78.50;37.57;;;7.60;85.90;;;;;;5043871;28;20073;-76
2023/12/10 06:11:00;;;;;;;17.70;3.83;;;7.60;85.90;;;;;;5044865;28;20372;-75
2023/12/10 06:13:27;;;;;;;22.63;8.80;;;7.60;86.10;;;;;;5045188;28;20635;-76
2023/12/10 06:15:54;;;;;;;24.47;6.20;;;7.60;86.40;;;;;;5044032;28;20059;-77
2023/12/10 06:18:21;;;;;;;22.93;5.57;;;7.60;86.50;;;;;;5044905;28;20049;-76
2023/12/10 06:20:46;;;;;;;33.80;11.37;;;7.60;86.50;;;;;;5029205;28;20044;-76
2023/12/10 06:23:12;;;;;;;28.63;5.47;;;7.60;86.50;;;;;;5048350;28;20044;-76
2023/12/10 06:25:38;;;;;;;37.80;16.47;;;7.60;86.40;;;;;;5048200;28;20048;-76
2023/12/10 06:28:03;;;;;;;30.07;10.83;;;7.70;86.40;;;;;;5032954;28;20107;-76
2023/12/10 06:30:29;;;;;;;54.20;21.97;;;7.70;86.40;;;;;;5039020;28;20358;-76
2023/12/10 06:32:55;;;;;;;31.33;7.90;;;7.80;86.30;;;;;;5039819;28;20041;-76
2023/12/10 06:35:21;;;;;;;32.53;6.03;;;7.80;86.20;;;;;;5044487;28;20045;-75
2023/12/10 06:37:47;;;;;;;38.40;6.47;;;7.80;86.20;;;;;;5045924;28;20492;-76
2023/12/10 06:40:13;;;;;;;43.87;13.10;;;7.80;86.20;;;;;;5045517;28;20512;-76
2023/12/10 06:42:38;;;;;;;41.37;7.97;;;7.80;86.10;;;;;;5035953;28;20134;-76
2023/12/10 06:45:05;;;;;;;31.57;6.70;;;7.80;86.20;;;;;;5023150;28;20053;-75
2023/12/10 06:47:31;;;;;;;37.77;6.87;;;7.80;86.30;;;;;;5011602;28;20057;-76
2023/12/10 06:49:57;;;;;;;42.60;9.97;;;7.80;86.30;;;;;;5015026;28;20366;-75
2023/12/10 06:52:22;;;;;;;35.13;11.53;;;7.80;86.30;;;;;;5013287;28;20405;-77
2023/12/10 06:54:48;;;;;;;46.20;12.87;;;7.80;86.30;;;;;;5021789;28;20046;-77
2023/12/10 06:57:14;;;;;;;38.00;6.73;;;7.80;86.30;;;;;;5039044;28;20068;-76
2023/12/10 06:59:39;;;;;;;32.50;5.67;;;7.70;86.20;;;;;;5024634;28;20103;-76
2023/12/10 07:02:06;;;;;;;37.90;6.70;;;7.70;86.20;;;;;;5025019;28;20352;-76
2023/12/10 07:04:33;;;;;;;46.97;7.13;;;7.60;86.30;;;;;;4995850;28;20053;-75
2023/12/10 07:06:58;;;;;;;32.43;6.50;;;7.60;86.40;;;;;;5010242;28;20041;-77
2023/12/10 07:09:24;;;;;;;25.63;5.03;;;7.60;86.50;;;;;;5006401;28;20073;-76
2023/12/10 07:11:50;;;;;;;30.27;9.97;;;7.60;86.70;;;;;;5037300;28;20076;-76
2023/12/10 07:14:15;;;;;;;30.67;7.40;;;7.60;86.90;;;;;;5045150;28;20048;-72
2023/12/10 07:16:41;;;;;;;36.70;5.30;;;7.60;87.00;;;;;;5044476;28;20114;-75
2023/12/10 07:19:07;;;;;;;32.20;6.10;;;7.70;87.00;;;;;;5030665;28;20045;-76
2023/12/10 07:21:32;;;;;;;20.67;5.27;;;7.70;87.00;;;;;;5027062;28;20057;-76
2023/12/10 07:23:58;;;;;;;28.00;5.10;;;7.80;87.00;;;;;;5027596;28;20049;-75
2023/12/10 07:26:25;;;;;;;29.00;5.60;;;7.80;87.00;;;;;;5025477;28;20064;-75
2023/12/10 07:28:51;;;;;;;29.90;5.33;;;7.80;87.00;;;;;;5043864;28;20099;-76
2023/12/10 07:31:18;;;;;;;30.07;6.20;;;7.80;87.10;;;;;;5046918;28;20455;-75
2023/12/10 07:33:44;;;;;;;31.30;5.17;;;7.80;86.90;;;;;;5030273;28;20044;-76
2023/12/10 07:36:10;;;;;;;23.67;5.20;;;7.80;86.80;;;;;;5047234;28;20067;-76
2023/12/10 07:38:36;;;;;;;32.27;6.53;;;7.80;86.80;;;;;;5046598;28;20053;-76
2023/12/10 07:41:02;;;;;;;22.87;5.37;;;7.80;86.80;;;;;;5046185;28;20051;-76
2023/12/10 07:43:27;;;;;;;19.57;5.37;;;7.80;86.80;;;;;;5036611;28;20072;-76
2023/12/10 07:45:53;;;;;;;25.57;5.47;;;7.80;86.70;;;;;;5035499;28;20051;-76
2023/12/10 07:48:22;;;;;;;25.10;4.73;;;7.80;86.70;;;;;;5034080;28;20046;-74
2023/12/10 07:50:47;;;;;;;24.07;4.40;;;7.80;87.00;;;;;;5033580;28;20512;-76
2023/12/10 07:53:13;;;;;;;26.67;6.67;;;7.80;87.10;;;;;;5033871;28;20050;-76
2023/12/10 07:55:39;;;;;;;31.90;10.07;;;7.80;87.30;;;;;;5034417;28;20381;-77
2023/12/10 07:58:05;;;;;;;33.37;6.70;;;7.80;87.60;;;;;;5029960;28;20056;-75
2023/12/10 08:00:31;;;;;;;48.20;15.17;;;7.70;87.90;;;;;;5009754;28;20062;-77
2023/12/10 08:02:57;;;;;;;32.77;5.83;;;7.70;88.00;;;;;;5022549;28;20216;-76
2023/12/10 08:05:22;;;;;;;32.07;8.33;;;7.70;88.00;;;;;;5034814;28;20488;-76
2023/12/10 08:07:48;;;;;;;31.97;7.40;;;7.70;88.00;;;;;;5021883;28;20099;-76
2023/12/10 08:10:14;;;;;;;46.43;19.43;;;7.80;87.80;;;;;;5027638;28;20075;-77
2023/12/10 08:12:40;;;;;;;26.00;10.67;;;7.80;87.70;;;;;;5025717;28;20037;-76
2023/12/10 08:15:06;;;;;;;24.97;5.30;;;7.80;87.60;;;;;;5022169;28;20041;-78
2023/12/10 08:17:32;;;;;;;21.23;4.90;;;7.80;87.60;;;;;;5043267;28;20059;-76
2023/12/10 08:19:58;;;;;;;20.97;4.00;;;7.80;87.50;;;;;;5043324;28;20407;-77
2023/12/10 08:22:24;;;;;;;36.77;22.30;;;7.80;87.60;;;;;;5042168;28;20298;-77
2023/12/10 08:24:49;;;;;;;33.83;16.70;;;7.80;87.60;;;;;;5043984;28;20076;-78
2023/12/10 08:27:15;;;;;;;24.00;6.63;;;7.80;87.60;;;;;;5043627;28;20044;-76
2023/12/10 08:29:41;;;;;;;28.53;7.30;;;7.70;87.70;;;;;;5045158;28;20778;-77
2023/12/10 08:32:07;;;;;;;33.83;7.77;;;7.70;87.70;;;;;;5045279;28;20815;-77
2023/12/10 08:34:33;;;;;;;28.40;8.33;;;7.70;87.70;;;;;;5043783;28;20045;-76
2023/12/10 08:36:58;;;;;;;37.80;7.73;;;7.70;87.80;;;;;;5037349;28;20115;-77
2023/12/10 08:39:24;;;;;;;33.63;11.73;;;7.60;87.70;;;;;;5033150;28;20053;-77
2023/12/10 08:41:50;;;;;;;30.93;6.50;;;7.60;87.80;;;;;;5035475;28;20154;-77
2023/12/10 08:44:16;;;;;;;34.23;16.47;;;7.60;87.80;;;;;;5042039;28;20322;-76
2023/12/10 08:46:41;;;;;;;26.80;5.70;;;7.60;88.00;;;;;;5023524;28;20417;-77
2023/12/10 08:49:08;;;;;;;31.00;5.53;;;7.60;88.10;;;;;;5022699;28;20603;-76
2023/12/10 08:51:33;;;;;;;41.93;14.60;;;7.50;88.20;;;;;;5020834;28;20056;-77
2023/12/10 08:53:59;;;;;;;55.00;18.17;;;7.50;88.30;;;;;;5021072;28;20068;-77
2023/12/10 08:56:26;;;;;;;41.70;6.93;;;7.50;88.40;;;;;;5016022;28;20123;-76
2023/12/10 08:58:52;;;;;;;51.83;7.93;;;7.50;88.50;;;;;;5039179;28;20080;-76
2023/12/10 09:01:17;;;;;;;40.80;7.70;;;7.50;88.70;;;;;;5042096;28;20598;-76
2023/12/10 09:03:45;;;;;;;52.83;9.53;;;7.50;88.60;;;;;;5042575;28;20343;-77
2023/12/10 09:06:14;;;;;;;44.17;9.60;;;7.50;88.60;;;;;;5041096;28;20053;-77
2023/12/10 09:08:39;;;;;;;51.73;8.40;;;7.50;88.30;;;;;;5043094;28;20436;-76
2023/12/10 09:11:05;;;;;;;52.10;14.17;;;7.60;88.20;;;;;;5042884;28;20049;-77
2023/12/10 09:13:37;;;;;;;46.17;11.77;;;7.60;87.90;;;;;;5042819;28;20048;-76
2023/12/10 09:16:03;;;;;;;41.27;13.77;;;7.60;87.60;;;;;;5042548;28;20075;-76
2023/12/10 09:18:29;;;;;;;35.30;10.70;;;7.60;87.50;;;;;;5042632;28;20126;-77
2023/12/10 09:20:55;;;;;;;33.60;14.27;;;7.60;87.40;;;;;;5042670;28;20492;-77
2023/12/10 09:23:21;;;;;;;40.20;9.83;;;7.60;87.30;;;;;;5043151;28;20041;-77
2023/12/10 09:25:48;;;;;;;33.50;15.23;;;7.50;87.30;;;;;;5074993;28;20041;-76
2023/12/10 09:28:13;;;;;;;42.07;7.37;;;7.50;87.30;;;;;;5031507;28;20041;-75
2023/12/10 09:30:39;;;;;;;34.50;9.17;;;7.50;87.50;;;;;;5044745;28;20489;-77
2023/12/10 09:33:05;;;;;;;39.37;10.77;;;7.50;87.60;;;;;;5032740;28;20099;-76
2023/12/10 09:35:31;;;;;;;62.73;29.67;;;7.50;87.70;;;;;;5034582;28;20053;-78
2023/12/10 09:37:57;;;;;;;35.93;12.73;;;7.50;87.80;;;;;;5037377;28;20114;-77
2023/12/10 09:40:23;;;;;;;30.53;11.87;;;7.50;87.70;;;;;;5041317;28;20053;-77
2023/12/10 09:42:48;;;;;;;150.10;78.73;;;7.50;87.50;;;;;;5052188;28;20372;-78
2023/12/10 09:45:14;;;;;;;32.77;5.90;;;7.50;87.20;;;;;;5036117;28;20049;-76
2023/12/10 09:47:44;;;;;;;46.10;29.03;;;7.50;87.00;;;;;;5039682;28;20064;-76
2023/12/10 09:50:10;;;;;;;24.83;6.53;;;7.50;87.00;;;;;;5035549;28;20855;-78
2023/12/10 09:52:36;;;;;;;31.93;20.27;;;7.60;86.90;;;;;;5030105;28;20367;-77
2023/12/10 09:55:01;;;;;;;32.50;11.73;;;7.50;86.70;;;;;;5043163;28;20041;-77
2023/12/10 09:57:30;;;;;;;37.63;21.80;;;7.50;86.80;;;;;;5045050;28;20131;-76
2023/12/10 09:59:56;;;;;;;30.03;6.83;;;7.50;86.90;;;;;;5043924;28;20044;-76
2023/12/10 10:02:29;;;;;;;25.47;6.97;;;7.50;86.70;;;;;;5044605;28;20594;-77
2023/12/10 10:04:55;;;;;;;33.37;9.33;;;7.50;86.80;;;;;;5045701;28;20052;-76
2023/12/10 10:07:21;;;;;;;40.53;16.00;;;7.50;86.80;;;;;;5046092;28;20071;-77
2023/12/10 10:09:46;;;;;;;87.23;57.90;;;7.60;86.90;;;;;;5045570;28;20045;-77
2023/12/10 10:12:13;;;;;;;35.80;6.90;;;7.60;87.00;;;;;;5039924;28;20062;-76
2023/12/10 10:14:56;;;;;;;36.33;15.07;;;7.60;87.10;;;;;;5025024;28;20057;-78
2023/12/10 10:17:29;;;;;;;32.87;12.90;;;7.50;87.20;;;;;;5024721;28;20069;-77
2023/12/10 10:19:55;;;;;;;30.57;12.33;;;7.50;87.20;;;;;;5019437;28;20045;-77
2023/12/10 10:22:25;;;;;;;28.77;6.47;;;7.50;87.10;;;;;;5025294;28;20045;-77
2023/12/10 10:25:00;;;;;;;19.63;5.73;;;7.50;87.00;;;;;;5026702;28;20494;-77
2023/12/10 10:27:26;;;;;;;42.20;17.70;;;7.50;87.10;;;;;;5023304;28;20497;-77
2023/12/10 10:29:55;;;;;;;36.83;15.77;;;7.50;87.20;;;;;;5026101;28;20057;-80
2023/12/10 10:32:22;;;;;;;38.47;11.60;;;7.50;87.30;;;;;;5026689;28;20952;-76
2023/12/10 10:34:49;;;;;;;51.07;18.70;;;7.50;87.50;;;;;;5024996;28;20136;-77
2023/12/10 10:37:15;;;;;;;44.67;21.70;;;7.50;87.50;;;;;;5024185;28;20055;-77
2023/12/10 10:39:42;;;;;;;44.70;12.60;;;7.50;87.70;;;;;;5026195;28;20045;-77
2023/12/10 10:42:09;;;;;;;49.67;11.73;;;7.50;87.70;;;;;;5023732;28;20037;-77
2023/12/10 10:44:41;;;;;;;47.10;9.53;;;7.50;87.80;;;;;;5011342;28;20135;-77
2023/12/10 10:47:08;;;;;;;70.33;26.53;;;7.50;87.90;;;;;;5024436;28;20123;-76
2023/12/10 10:49:47;;;;;;;63.63;25.90;;;7.50;88.00;;;;;;5024136;28;20049;-76
2023/12/10 10:52:19;;;;;;;54.83;14.63;;;7.50;87.90;;;;;;5036458;28;20055;-76
2023/12/10 10:54:45;;;;;;;47.13;10.70;;;7.50;87.80;;;;;;5045047;28;20045;-76
2023/12/10 10:57:11;;;;;;;43.13;12.97;;;7.60;87.50;;;;;;5044772;28;20049;-78
2023/12/10 10:59:38;;;;;;;49.07;15.27;;;7.60;87.40;;;;;;5040062;28;20064;-77
2023/12/10 11:02:08;;;;;;;46.20;13.37;;;7.60;87.40;;;;;;5036014;28;20073;-76
2023/12/10 11:04:38;;;;;;;47.40;9.63;;;7.60;87.30;;;;;;5038154;28;20072;-76
2023/12/10 11:07:07;;;;;;;49.93;10.23;;;7.60;87.30;;;;;;5044382;28;20049;-76
2023/12/10 11:09:54;;;;;;;84.63;39.53;;;7.60;87.30;;;;;;5039941;28;20484;-78
2023/12/10 11:12:48;;;;;;;83.37;38.37;;;7.60;87.20;;;;;;5031605;28;20061;-72
2023/12/10 11:15:18;;;;;;;50.33;14.50;;;7.60;86.90;;;;;;5045343;28;20049;-79
2023/12/10 11:17:53;;;;;;;53.53;15.03;;;7.70;86.50;;;;;;5043602;28;20051;-77
2023/12/10 11:20:34;;;;;;;41.70;11.53;;;7.70;86.30;;;;;;5044675;28;20055;-75
2023/12/10 11:23:05;;;;;;;56.93;12.23;;;7.80;86.10;;;;;;5045631;28;20049;-77
2023/12/10 11:25:31;;;;;;;58.50;9.27;;;7.80;85.90;;;;;;5047433;28;20056;-75
2023/12/10 11:27:58;;;;;;;48.87;11.13;;;7.80;86.00;;;;;;5048955;28;20044;-79
2023/12/10 11:30:25;;;;;;;46.90;13.77;;;7.80;85.70;;;;;;5047571;28;20619;-77
2023/12/10 11:32:50;;;;;;;49.33;10.63;;;7.80;85.90;;;;;;5048858;28;20443;-76
2023/12/10 11:35:17;;;;;;;46.33;15.60;;;7.80;86.20;;;;;;5047345;28;20056;-77
2023/12/10 11:37:43;;;;;;;50.07;15.27;;;7.80;86.30;;;;;;5046768;28;20139;-76
2023/12/10 11:40:09;;;;;;;47.47;12.17;;;7.80;86.20;;;;;;5046701;28;20048;-76
2023/12/10 11:42:35;;;;;;;49.87;12.57;;;7.80;86.00;;;;;;5052446;28;20163;-76
2023/12/10 11:45:02;;;;;;;53.17;12.83;;;7.80;85.90;;;;;;5039161;28;20073;-76
2023/12/10 11:47:28;;;;;;;49.60;13.30;;;7.80;85.90;;;;;;5038888;28;20080;-76
2023/12/10 11:49:56;;;;;;;56.03;13.60;;;7.80;85.90;;;;;;5035979;28;20544;-77
2023/12/10 11:52:22;;;;;;;53.87;15.63;;;7.80;85.80;;;;;;5032940;28;20056;-76
2023/12/10 11:54:49;;;;;;;50.07;15.97;;;7.80;85.80;;;;;;5036281;28;20492;-76
2023/12/10 11:57:15;;;;;;;50.60;10.77;;;7.80;85.80;;;;;;5031022;28;20107;-76
2023/12/10 11:59:47;;;;;;;44.10;11.73;;;7.80;85.70;;;;;;5028375;28;20057;-75
2023/12/10 12:02:17;;;;;;;54.20;17.57;;;7.80;85.80;;;;;;5046131;28;20049;-79
2023/12/10 12:04:43;;;;;;;54.57;11.47;;;7.80;85.30;;;;;;5046293;28;20057;-76
2023/12/10 12:07:24;;;;;;;58.83;13.37;;;7.80;85.40;;;;;;5046931;28;20585;-76
2023/12/10 12:09:51;;;;;;;58.92;11.20;;;7.80;85.40;;;;;;5047269;28;20067;-76
2023/12/10 12:12:21;;;;;;;67.60;40.80;;;7.80;85.40;;;;;;5046472;28;20069;-78
2023/12/10 12:14:51;;;;;;;55.97;11.37;;;7.80;85.20;;;;;;5046342;28;20056;-76
2023/12/10 12:17:19;;;;;;;51.13;16.53;;;7.80;85.10;;;;;;5046009;28;20044;-76
2023/12/10 12:19:45;;;;;;;52.43;16.63;;;7.80;85.00;;;;;;5046376;28;20500;-76
2023/12/10 12:22:11;;;;;;;59.27;13.40;;;7.80;85.00;;;;;;5046419;28;20587;-76
2023/12/10 12:24:43;;;;;;;45.57;16.17;;;7.80;84.70;;;;;;5046753;28;20048;-75
2023/12/10 12:27:12;;;;;;;;;;;7.80;84.70;;;;;;5046302;28;20045;-76
2023/12/10 12:29:37;;;;;;;57.17;12.83;;;7.80;84.50;;;;;;5046395;28;19921;-76
2023/12/10 12:32:04;;;;;;;56.30;13.43;;;7.80;84.50;;;;;;5046051;28;20063;-76
2023/12/10 12:34:31;;;;;;;51.60;19.70;;;7.80;84.30;;;;;;5037928;28;20088;-76
2023/12/10 12:36:57;;;;;;;49.07;19.40;;;7.80;84.10;;;;;;5024923;28;20423;-77
2023/12/10 12:39:24;;;;;;;43.63;13.80;;;7.80;83.70;;;;;;5026388;28;20077;-75